Time;durP1;ratioP1;P1;durP2;ratioP2;P2;SDS_P1;SDS_P2;PMS_P1;PMS_P2;Temp;Humidity;BMP_temperature;BMP_pressure;BME280_temperature;BME280_humidity;BME280_pressure;Samples;Min_cycle;Max_cycle;Signal;HPM_P1;HPM_P2
2022/04/03 00:01:40;;;;;;;;;15.50;13.50;;;;;6.47;62.51;101472.94;4772075;29;45531;-86
2022/04/03 00:04:05;;;;;;;;;15.25;14.25;;;;;6.42;61.60;101461.88;4755608;29;46652;-84
2022/04/03 00:09:52;;;;;;;;;15.50;12.50;;;;;6.39;60.90;101474.16;4772150;29;45620;-83
2022/04/03 00:12:18;;;;;;;;;15.75;14.00;;;;;6.32;61.27;101463.97;4772977;29;45605;-81
2022/04/03 00:14:44;;;;;;;;;14.50;12.75;;;;;6.30;61.64;101472.78;4774604;29;46018;-80
2022/04/03 00:17:09;;;;;;;;;14.00;13.75;;;;;6.27;61.44;101468.53;4773910;29;45507;-82
2022/04/03 00:19:35;;;;;;;;;16.75;15.75;;;;;6.26;61.48;101481.63;4776824;29;45737;-79
2022/04/03 00:22:03;;;;;;;;;15.50;14.75;;;;;6.24;62.02;101481.66;4775394;29;46287;-82
2022/04/03 00:24:29;;;;;;;;;10.75;10.75;;;;;6.21;61.61;101486.13;4759070;29;46705;-83
2022/04/03 00:26:54;;;;;;;;;15.50;12.50;;;;;6.17;62.97;101474.16;4773492;29;45640;-83
2022/04/03 00:29:20;;;;;;;;;13.00;12.25;;;;;6.16;60.91;101475.91;4773020;29;45657;-81
2022/04/03 00:31:45;;;;;;;;;12.25;12.25;;;;;6.12;63.02;101486.47;4770479;29;46045;-83
2022/04/03 00:34:11;;;;;;;;;14.50;12.75;;;;;6.08;60.68;101482.31;4771098;29;45606;-82
2022/04/03 00:39:58;;;;;;;;;11.25;10.75;;;;;5.98;62.22;101481.81;4771458;29;45527;-83
2022/04/03 00:42:24;;;;;;;;;8.50;8.50;;;;;5.94;61.99;101479.41;4755159;29;47398;-83
2022/04/03 00:44:50;;;;;;;;;10.25;9.00;;;;;5.91;61.58;101475.16;4771243;29;45578;-81
2022/04/03 00:47:17;;;;;;;;;12.00;12.00;;;;;5.90;62.48;101478.66;4770928;29;45605;-83
2022/04/03 00:49:43;;;;;;;;;15.50;14.50;;;;;5.86;61.64;101475.28;4754780;29;45684;-82
2022/04/03 00:55:30;;;;;;;;;11.50;11.00;;;;;5.76;62.24;101476.56;4770067;29;46162;-83
2022/04/03 00:57:59;;;;;;;;;11.25;11.25;;;;;5.78;63.04;101479.06;4753416;29;45806;-84
2022/04/03 01:00:25;;;;;;;;;17.00;11.25;;;;;5.71;62.93;101465.47;4770171;29;45531;-82
2022/04/03 01:02:50;;;;;;;;;14.75;12.00;;;;;5.75;63.71;101477.44;4770780;29;45606;-84
2022/04/03 01:05:16;;;;;;;;;12.00;11.50;;;;;5.72;63.97;101471.53;4770641;29;45571;-85
2022/04/03 01:07:43;;;;;;;;;12.75;12.75;;;;;5.74;63.29;101480.94;4770286;29;45657;-83
2022/04/03 01:10:09;;;;;;;;;17.00;15.00;;;;;5.70;62.43;101468.13;4753681;29;45938;-85
2022/04/03 01:12:41;;;;;;;;;12.50;12.00;;;;;5.71;62.31;101477.63;4769712;29;45605;-84
2022/04/03 01:15:09;;;;;;;;;12.50;11.00;;;;;5.70;61.84;101468.97;4754013;29;46333;-84
2022/04/03 01:17:34;;;;;;;;;16.00;15.50;;;;;5.69;63.62;101472.47;4753738;29;45876;-85
2022/04/03 01:20:00;;;;;;;;;13.50;12.25;;;;;5.69;63.85;101469.03;4770554;29;45554;-82
2022/04/03 01:25:47;;;;;;;;;10.50;10.00;;;;;5.70;63.46;101471.56;4770916;29;45782;-80
2022/04/03 01:28:13;;;;;;;;;15.00;12.00;;;;;5.72;64.16;101466.31;4771525;29;45668;-84
2022/04/03 01:30:38;;;;;;;;;12.50;11.75;;;;;5.65;63.81;101460.50;4772396;29;45582;-82
2022/04/03 01:33:04;;;;;;;;;11.50;11.00;;;;;5.71;63.83;101469.81;4771213;29;46139;-84
2022/04/03 01:35:29;;;;;;;;;16.00;12.00;;;;;5.71;63.27;101462.03;4770208;29;45695;-84
2022/04/03 01:37:55;;;;;;;;;15.50;14.50;;;;;5.70;63.02;101468.97;4752294;29;45652;-84
2022/04/03 01:40:20;;;;;;;;;14.25;10.50;;;;;5.68;63.22;101470.78;4769553;29;45689;-84
2022/04/03 01:42:46;;;;;;;;;12.75;12.50;;;;;5.63;62.64;101466.66;4771515;29;45494;-83
2022/04/03 01:45:11;;;;;;;;;13.25;11.25;;;;;5.64;62.93;101469.19;4772225;29;45430;-84
2022/04/03 01:47:37;;;;;;;;;14.25;12.00;;;;;5.60;63.49;101453.78;4775217;29;45637;-82
2022/04/03 01:50:05;;;;;;;;;14.75;12.75;;;;;5.64;62.71;101470.94;4775609;29;45488;-83
2022/04/03 01:56:04;;;;;;;;;13.75;12.50;;;;;5.59;63.73;101459.88;4771955;29;45752;-80
2022/04/03 01:58:30;;;;;;;;;14.75;13.25;;;;;5.60;63.25;101465.03;4754401;29;45816;-82
2022/04/03 02:00:55;;;;;;;;;15.75;14.50;;;;;5.62;64.12;101470.16;4770182;29;45692;-83
2022/04/03 02:03:21;;;;;;;;;14.75;12.00;;;;;5.64;64.13;101469.19;4753659;29;48443;-85
2022/04/03 02:05:47;;;;;;;;;11.75;9.00;;;;;5.64;63.13;101460.56;4769516;29;45683;-82
2022/04/03 02:08:12;;;;;;;;;12.00;11.50;;;;;5.63;62.52;101464.91;4769595;29;45594;-83
2022/04/03 02:10:38;;;;;;;;;15.00;13.50;;;;;5.62;61.83;101463.19;4770282;29;45612;-84
2022/04/03 02:13:04;;;;;;;;;15.25;10.25;;;;;5.63;61.29;101466.66;4768711;29;46479;-84
2022/04/03 02:15:30;;;;;;;;;14.00;12.00;;;;;5.63;62.42;101456.25;4769166;29;45668;-82
2022/04/03 02:17:55;;;;;;;;;15.00;11.25;;;;;5.59;63.25;101460.72;4769834;29;45632;-83
2022/04/03 02:20:21;;;;;;;;;13.25;12.00;;;;;5.60;63.09;101462.44;4769933;29;45726;-83
2022/04/03 02:26:08;;;;;;;;;13.00;11.50;;;;;5.65;62.94;101467.44;4768666;29;45724;-81
2022/04/03 02:28:34;;;;;;;;;11.50;10.75;;;;;5.66;62.69;101471.75;4768123;29;45646;-85
2022/04/03 02:30:59;;;;;;;;;13.50;12.00;;;;;5.64;62.94;101470.94;4768131;29;45773;-82
2022/04/03 02:33:24;;;;;;;;;14.00;12.00;;;;;5.66;63.15;101469.16;4768034;29;46304;-85
2022/04/03 02:35:50;;;;;;;;;12.00;12.00;;;;;5.63;63.47;101464.06;4767904;29;46282;-82
2022/04/03 02:41:37;;;;;;;;;12.00;10.50;;;;;5.66;64.01;101467.41;4767454;29;45879;-84
2022/04/03 02:44:03;;;;;;;;;12.50;11.50;;;;;5.69;62.44;101467.28;4768047;29;45589;-83
2022/04/03 02:46:29;;;;;;;;;10.00;8.75;;;;;5.70;62.96;101468.13;4767916;29;46611;-84
2022/04/03 02:48:55;;;;;;;;;12.00;11.25;;;;;5.67;61.16;101474.28;4768501;29;45674;-82
2022/04/03 02:51:20;;;;;;;;;13.00;11.00;;;;;5.68;63.36;101465.56;4771637;29;45587;-83
2022/04/03 02:57:07;;;;;;;;;13.75;12.00;;;;;5.65;63.12;101468.31;4770925;29;46130;-83
2022/04/03 02:59:33;;;;;;;;;13.25;11.25;;;;;5.66;63.60;101472.59;4771440;29;45741;-86
2022/04/03 03:01:59;;;;;;;;;11.75;10.25;;;;;5.65;63.24;101468.31;4755354;29;45844;-82
2022/04/03 03:04:25;;;;;;;;;8.75;8.25;;;;;5.66;63.50;101469.16;4771529;29;46536;-83
2022/04/03 03:06:50;;;;;;;;;15.00;12.00;;;;;5.62;63.71;101465.78;4756160;29;47139;-85
2022/04/03 03:09:17;;;;;;;;;14.00;13.00;;;;;5.66;63.01;101472.59;4772761;29;45603;-82
2022/04/03 03:11:43;;;;;;;;;12.25;11.00;;;;;5.69;63.59;101482.03;4756643;29;45863;-81
2022/04/03 03:14:08;;;;;;;;;12.50;11.25;;;;;5.68;62.32;101480.31;4771525;29;46650;-82
2022/04/03 03:16:33;;;;;;;;;14.50;12.75;;;;;5.67;62.98;101479.47;4770918;29;45568;-82
2022/04/03 03:18:59;;;;;;;;;13.00;12.00;;;;;5.62;61.75;101480.53;4772978;29;45614;-84
2022/04/03 03:21:25;;;;;;;;;12.00;10.00;;;;;5.59;63.13;101471.13;4772654;29;45909;-84
2022/04/03 03:27:12;;;;;;;;;13.00;12.00;;;;;5.61;62.90;101484.91;4770323;29;45958;-84
2022/04/03 03:29:38;;;;;;;;;16.75;11.75;;;;;5.59;63.08;101489.31;4770662;29;45650;-83
2022/04/03 03:32:03;;;;;;;;;11.75;11.25;;;;;5.59;63.19;101491.91;4754470;29;45907;-83
2022/04/03 03:34:29;;;;;;;;;8.50;8.50;;;;;5.55;63.42;101489.50;4771223;29;47233;-83
2022/04/03 03:36:54;;;;;;;;;10.75;10.75;;;;;5.58;63.56;101491.97;4771950;29;45637;-82
2022/04/03 03:42:42;;;;;;;;;11.50;11.00;;;;;5.49;63.73;101487.97;4776251;29;45437;-82
2022/04/03 03:45:12;;;;;;;;;11.25;10.50;;;;;5.51;63.19;101483.53;4776109;29;45510;-81
2022/04/03 03:47:38;;;;;;;;;15.25;12.00;;;;;5.47;62.66;101488.00;4759622;29;46144;-80
2022/04/03 03:50:04;;;;;;;;;12.50;12.50;;;;;5.48;62.62;101491.44;4775608;29;45624;-85
2022/04/03 03:52:29;;;;;;;;;11.50;11.50;;;;;5.49;63.70;101499.19;4758980;29;45906;-81
2022/04/03 03:54:56;;;;;;;;;9.00;8.50;;;;;5.48;63.52;101488.84;4774287;29;46026;-82
2022/04/03 03:57:22;;;;;;;;;9.00;8.75;;;;;5.48;62.76;101492.31;4772497;29;46756;-82
2022/04/03 03:59:47;;;;;;;;;11.75;8.75;;;;;5.45;63.51;101487.19;4771914;29;45571;-84
2022/04/03 04:02:13;;;;;;;;;12.75;11.00;;;;;5.47;62.15;101485.41;4771971;29;45593;-84
2022/04/03 04:04:39;;;;;;;;;11.00;9.50;;;;;5.41;61.73;101484.75;4770773;29;46450;-83
2022/04/03 04:07:04;;;;;;;;;13.00;10.00;;;;;5.42;62.48;101479.53;4770210;29;45629;-84
2022/04/03 04:12:52;;;;;;;;;13.00;11.00;;;;;5.35;62.52;101500.56;4771077;29;45515;-80
2022/04/03 04:15:17;;;;;;;;;12.00;11.00;;;;;5.33;61.07;101497.19;4771854;29;46413;-87
2022/04/03 04:17:45;;;;;;;;;9.25;9.25;;;;;5.27;63.09;101495.66;4772868;29;45833;-81
2022/04/03 04:20:15;;;;;;;;;11.50;11.00;;;;;5.30;63.09;101497.28;4772185;29;45554;-83
2022/04/03 04:22:42;;;;;;;;;12.75;10.00;;;;;5.30;63.54;101508.53;4755294;29;45913;-85
2022/04/03 04:25:09;;;;;;;;;11.75;10.00;;;;;5.31;63.36;101504.19;4769788;29;46436;-82
2022/04/03 04:27:35;;;;;;;;;15.25;11.00;;;;;5.24;63.15;101503.53;4769303;29;46532;-80
2022/04/03 04:30:02;;;;;;;;;9.00;8.50;;;;;5.28;63.39;101514.69;4769967;29;45641;-82
2022/04/03 04:32:27;;;;;;;;;11.75;8.00;;;;;5.26;62.43;101508.69;4769763;29;45796;-84
2022/04/03 04:34:53;;;;;;;;;10.50;9.00;;;;;5.24;62.78;101518.28;4769930;29;45520;-82
2022/04/03 04:37:18;;;;;;;;;10.00;9.00;;;;;5.23;62.24;101520.06;4770117;29;45612;-82
2022/04/03 04:43:06;;;;;;;;;9.00;8.00;;;;;5.15;62.96;101526.41;4769910;29;45831;-81
2022/04/03 04:45:31;;;;;;;;;10.50;9.50;;;;;5.08;62.24;101524.00;4769569;29;45634;-84
2022/04/03 04:47:59;;;;;;;;;11.00;9.50;;;;;5.05;61.22;101529.31;4768127;29;46563;-84
2022/04/03 04:50:28;;;;;;;;;9.75;8.00;;;;;5.03;63.65;101546.69;4769457;29;45858;-84
2022/04/03 04:52:56;;;;;;;;;9.00;8.00;;;;;4.92;62.33;101525.41;4769369;29;45689;-82
2022/04/03 04:55:22;;;;;;;;;11.00;9.50;;;;;4.93;63.23;101531.44;4769076;29;45648;-81
2022/04/03 04:57:55;;;;;;;;;10.75;9.50;;;;;4.86;64.08;101538.59;4769322;29;46464;-81
2022/04/03 05:00:22;;;;;;;;;13.50;11.00;;;;;4.83;61.71;101540.44;4752791;29;46098;-81
2022/04/03 05:02:48;;;;;;;;;10.00;7.00;;;;;4.78;63.08;101540.59;4769324;29;45775;-82
2022/04/03 05:05:20;;;;;;;;;11.25;8.75;;;;;4.76;63.93;101544.97;4768946;29;46223;-84
2022/04/03 05:07:49;;;;;;;;;10.00;8.25;;;;;4.71;63.64;101546.88;4769133;29;46127;-85
2022/04/03 05:13:37;;;;;;;;;11.50;8.00;;;;;4.63;63.91;101549.72;4768237;29;45696;-83
2022/04/03 05:16:03;;;;;;;;;9.25;7.00;;;;;4.58;63.36;101542.97;4768640;29;45708;-82
2022/04/03 05:18:28;;;;;;;;;10.75;8.00;;;;;4.54;64.29;101538.75;4752293;29;47661;-84
2022/04/03 05:20:54;;;;;;;;;10.50;10.00;;;;;4.52;64.28;101551.81;4768959;29;45567;-81
2022/04/03 05:23:19;;;;;;;;;9.25;8.00;;;;;4.46;63.90;101545.94;4752500;29;45687;-82
2022/04/03 05:25:45;;;;;;;;;11.75;10.00;;;;;4.47;64.67;101552.84;4768502;29;45597;-82
2022/04/03 05:28:11;;;;;;;;;12.50;10.25;;;;;4.41;64.43;101546.09;4768747;29;46582;-84
2022/04/03 05:30:36;;;;;;;;;12.25;9.00;;;;;4.42;64.48;101549.53;4768577;29;45858;-80
2022/04/03 05:33:02;;;;;;;;;8.50;7.00;;;;;4.36;63.63;101571.31;4768860;29;45502;-82
2022/04/03 05:35:27;;;;;;;;;11.00;10.25;;;;;4.34;62.65;101569.66;4768354;29;46625;-81
2022/04/03 05:37:52;;;;;;;;;11.00;8.00;;;;;4.24;63.58;101556.13;4768590;29;46593;-81
2022/04/03 05:43:39;;;;;;;;;8.50;8.50;;;;;4.16;64.03;101566.72;4768653;29;45651;-81
2022/04/03 05:46:05;;;;;;;;;10.50;10.00;;;;;4.13;64.35;101572.00;4751793;29;47126;-82
2022/04/03 05:48:30;;;;;;;;;11.00;9.50;;;;;4.08;63.02;101571.28;4768329;29;46509;-83
2022/04/03 05:50:56;;;;;;;;;11.00;10.00;;;;;4.03;64.70;101560.19;4768456;29;45602;-83
2022/04/03 05:53:21;;;;;;;;;13.00;12.00;;;;;4.05;64.02;101567.94;4768660;29;45560;-82
2022/04/03 05:59:09;;;;;;;;;8.00;8.00;;;;;4.00;64.65;101572.38;4768755;29;46197;-83
2022/04/03 06:01:35;;;;;;;;;10.25;9.00;;;;;3.99;65.05;101565.53;4752086;29;45541;-82
2022/04/03 06:04:00;;;;;;;;;11.00;11.00;;;;;4.00;65.01;101574.97;4769026;29;45532;-82
2022/04/03 06:06:25;;;;;;;;;11.50;10.00;;;;;4.00;65.51;101577.56;4769022;29;46323;-84
2022/04/03 06:08:51;;;;;;;;;10.75;8.50;;;;;4.00;65.03;101580.16;4752358;29;47448;-84
2022/04/03 06:11:18;;;;;;;;;10.00;10.00;;;;;3.95;65.04;101579.44;4770125;29;45613;-82
2022/04/03 06:13:44;;;;;;;;;10.75;9.00;;;;;3.97;65.03;101581.09;4770787;29;45583;-85
2022/04/03 06:16:10;;;;;;;;;10.75;9.00;;;;;3.98;65.10;101587.16;4772115;29;46704;-80
2022/04/03 06:18:36;;;;;;;;;8.00;7.00;;;;;3.96;64.89;101586.31;4772111;29;46003;-83
2022/04/03 06:21:01;;;;;;;;;16.00;9.00;;;;;3.93;64.28;101587.28;4770196;29;45617;-81
2022/04/03 06:23:27;;;;;;;;;12.75;10.25;;;;;3.98;63.55;101593.19;4770162;29;45740;-80
2022/04/03 06:29:13;;;;;;;;;11.00;9.00;;;;;4.00;62.95;101604.34;4771490;29;46073;-83
2022/04/03 06:31:39;;;;;;;;;8.50;8.25;;;;;4.00;63.65;101601.75;4756513;29;45751;-81
2022/04/03 06:34:04;;;;;;;;;11.50;10.00;;;;;3.99;63.41;101600.06;4773666;29;45696;-84
2022/04/03 06:36:30;;;;;;;;;11.00;8.00;;;;;4.00;63.02;101613.84;4773069;29;45612;-76
2022/04/03 06:38:55;;;;;;;;;11.25;9.00;;;;;4.03;63.30;101606.88;4770998;29;46319;-78
2022/04/03 06:44:43;;;;;;;;;14.50;10.00;;;;;4.04;63.53;101611.16;4770924;29;45649;-78
2022/04/03 06:47:10;;;;;;;;;11.75;10.75;;;;;4.05;63.56;101620.63;4770684;29;46214;-78
2022/04/03 06:49:35;;;;;;;;;11.00;8.00;;;;;4.06;63.98;101611.09;4770727;29;47435;-79
2022/04/03 06:52:01;;;;;;;;;9.50;8.00;;;;;4.07;64.34;101618.00;4770686;29;45713;-78
2022/04/03 06:54:26;;;;;;;;;10.50;10.00;;;;;4.07;63.93;101621.44;4770634;29;45979;-78
2022/04/03 06:56:53;;;;;;;;;10.00;10.00;;;;;4.11;64.59;101632.56;4770146;29;46503;-79
2022/04/03 06:59:18;;;;;;;;;13.00;11.50;;;;;4.12;62.13;101632.53;4770814;29;46300;-76
2022/04/03 07:01:45;;;;;;;;;11.25;11.00;;;;;4.13;63.75;101635.97;4770992;29;45651;-79
2022/04/03 07:04:10;;;;;;;;;9.50;8.25;;;;;4.13;63.96;101634.22;4754930;29;45660;-79
2022/04/03 07:06:36;;;;;;;;;11.00;8.00;;;;;4.16;63.89;101641.06;4770323;29;45673;-78
2022/04/03 07:09:01;;;;;;;;;13.50;11.75;;;;;4.19;63.97;101635.81;4770165;29;46236;-76
2022/04/03 07:14:49;;;;;;;;;11.75;9.00;;;;;4.24;63.01;101644.31;4770574;29;45716;-76
2022/04/03 07:17:16;;;;;;;;;14.50;10.50;;;;;4.26;63.42;101636.50;4769853;29;46619;-78
2022/04/03 07:19:41;;;;;;;;;8.00;8.00;;;;;4.29;63.78;101634.66;4770306;29;46020;-78
2022/04/03 07:22:07;;;;;;;;;12.25;11.00;;;;;4.34;63.30;101634.50;4753904;29;45996;-79
2022/04/03 07:24:32;;;;;;;;;10.50;10.00;;;;;4.38;63.22;101641.28;4772155;29;45522;-79
2022/04/03 07:30:19;;;;;;;;;8.75;8.00;;;;;4.45;62.48;101654.06;4769799;29;46138;-79
2022/04/03 07:32:44;;;;;;;;;11.50;11.00;;;;;4.50;63.16;101651.31;4769832;29;45609;-79
2022/04/03 07:35:11;;;;;;;;;8.25;8.25;;;;;4.56;63.08;101654.59;4769346;29;45616;-78
2022/04/03 07:37:37;;;;;;;;;12.00;11.00;;;;;4.61;62.92;101654.47;4769563;29;46522;-78
2022/04/03 07:40:04;;;;;;;;;11.75;8.75;;;;;4.64;62.17;101660.41;4769608;29;46370;-78
2022/04/03 07:42:32;;;;;;;;;10.50;10.25;;;;;4.69;61.84;101651.66;4753766;29;45537;-77
2022/04/03 07:44:57;;;;;;;;;8.00;8.00;;;;;4.70;62.15;101658.53;4769993;29;45532;-77
2022/04/03 07:47:23;;;;;;;;;11.25;8.00;;;;;4.70;61.78;101658.53;4769792;29;45695;-78
2022/04/03 07:49:48;;;;;;;;;8.75;8.75;;;;;4.72;61.34;101660.19;4769855;29;45621;-78
2022/04/03 07:52:16;;;;;;;;;10.50;9.75;;;;;4.74;61.82;101648.03;4769708;29;45677;-78
2022/04/03 07:54:41;;;;;;;;;8.50;7.50;;;;;4.77;60.92;101663.50;4770156;29;45739;-77
2022/04/03 08:00:28;;;;;;;;;8.00;7.25;;;;;4.84;61.23;101667.59;4769622;29;45864;-77
2022/04/03 08:02:53;;;;;;;;;7.25;7.00;;;;;4.88;60.49;101671.81;4769296;29;46090;-76
2022/04/03 08:05:19;;;;;;;;;10.00;7.75;;;;;4.90;61.39;101669.16;4769360;29;45592;-78
2022/04/03 08:07:46;;;;;;;;;11.75;11.00;;;;;4.94;61.68;101674.22;4769765;29;45570;-78
2022/04/03 08:10:14;;;;;;;;;10.50;9.00;;;;;4.98;60.91;101681.00;4769418;29;46087;-74
2022/04/03 08:12:41;;;;;;;;;8.50;8.00;;;;;5.03;60.69;101684.31;4769364;29;45732;-77
2022/04/03 08:15:08;;;;;;;;;9.00;8.25;;;;;5.04;59.43;101686.00;4769479;29;45652;-77
2022/04/03 08:17:34;;;;;;;;;8.50;8.25;;;;;5.07;59.44;101680.72;4769447;29;45783;-76
2022/04/03 08:20:02;;;;;;;;;8.00;7.00;;;;;5.13;60.02;101687.47;4769051;29;47178;-74
2022/04/03 08:22:28;;;;;;;;;8.00;8.00;;;;;5.14;60.15;101683.13;4769341;29;45607;-75
2022/04/03 08:24:54;;;;;;;;;7.00;7.00;;;;;5.14;59.55;101680.53;4768835;29;46099;-79
2022/04/03 08:30:44;;;;;;;;;5.00;5.00;;;;;5.25;59.10;101678.44;4769033;29;45752;-76
2022/04/03 08:33:10;;;;;;;;;7.25;5.00;;;;;5.29;59.12;101686.09;4769141;29;45586;-76
2022/04/03 08:35:40;;;;;;;;;5.75;5.00;;;;;5.35;59.34;101695.44;4769189;29;45621;-78
2022/04/03 08:38:07;;;;;;;;;6.25;6.25;;;;;5.40;59.15;101693.53;4769009;29;45773;-75
2022/04/03 08:40:33;;;;;;;;;4.00;4.00;;;;;5.46;58.43;101690.75;4769120;29;45556;-76
2022/04/03 08:43:00;;;;;;;;;6.75;5.25;;;;;5.51;59.06;101698.41;4768911;29;45937;-77
2022/04/03 08:45:26;;;;;;;;;6.50;6.25;;;;;5.55;58.59;101689.59;4769025;29;45626;-75
2022/04/03 08:47:54;;;;;;;;;6.50;6.25;;;;;5.59;58.88;101692.03;4752769;29;46992;-80
2022/04/03 08:50:29;;;;;;;;;5.00;5.00;;;;;5.64;58.10;101690.16;4768742;29;47062;-77
2022/04/03 08:52:58;;;;;;;;;8.50;6.25;;;;;5.71;57.31;101696.84;4768883;29;45559;-80
2022/04/03 08:55:32;;;;;;;;;8.25;6.00;;;;;5.76;57.88;101689.75;4769144;29;45503;-73
2022/04/03 08:57:59;;;;;;;;;5.00;5.00;;;;;5.81;57.80;101697.38;4769013;29;45486;-80
2022/04/03 09:00:24;;;;;;;;;5.25;4.75;;;;;5.86;57.74;101687.66;4768787;29;45544;-77
2022/04/03 09:02:50;;;;;;;;;6.50;5.00;;;;;5.92;55.56;101695.28;4768368;29;45592;-74
2022/04/03 09:05:17;;;;;;;;;8.00;6.25;;;;;5.97;53.20;101695.13;4768434;29;45828;-77
2022/04/03 09:07:43;;;;;;;;;7.25;5.75;;;;;5.98;53.79;101692.50;4768561;29;46357;-79
2022/04/03 09:10:15;;;;;;;;;2.00;2.00;;;;;5.97;52.14;101675.19;4768520;29;46097;-75
2022/04/03 09:16:03;;;;;;;;;5.25;5.25;;;;;6.03;54.33;101687.13;4768462;29;45583;-75
2022/04/03 09:18:49;;;;;;;;;7.00;5.00;;;;;6.07;55.97;101691.31;4768427;29;46590;-77
2022/04/03 09:21:22;;;;;;;;;6.00;5.00;;;;;6.11;55.25;101685.94;4768292;29;46207;-75
2022/04/03 09:23:58;;;;;;;;;4.50;4.50;;;;;6.16;53.68;101699.63;4763465;29;45897;-77
2022/04/03 09:26:24;;;;;;;;;2.50;2.00;;;;;6.20;51.42;101696.03;4752015;29;45841;-75
2022/04/03 09:28:49;;;;;;;;;7.50;5.00;;;;;6.23;52.74;101693.31;4768622;29;46387;-75
2022/04/03 09:31:25;;;;;;;;;4.00;2.50;;;;;6.26;53.46;101684.56;4768409;29;46242;-76
2022/04/03 09:34:02;;;;;;;;;5.75;5.00;;;;;6.31;53.38;101693.06;4768498;29;45485;-76
2022/04/03 09:36:32;;;;;;;;;2.50;2.00;;;;;6.35;53.35;101689.44;4768552;29;45559;-81
2022/04/03 09:39:26;;;;;;;;;3.00;2.00;;;;;6.40;50.65;101700.53;4752491;29;47583;-78
2022/04/03 09:42:08;;;;;;;;;3.50;2.00;;;;;6.45;52.74;101696.00;4766990;29;46266;-78
2022/04/03 09:44:34;;;;;;;;;1.00;1.00;;;;;6.50;52.74;101699.28;4753508;29;45799;-81
2022/04/03 09:47:17;;;;;;;;;5.25;4.00;;;;;6.54;49.22;101686.97;4769172;29;45606;-81
2022/04/03 09:49:44;;;;;;;;;2.00;2.00;;;;;6.55;48.77;101681.72;4753033;29;45643;-78
2022/04/03 09:52:10;;;;;;;;;2.00;2.00;;;;;6.56;49.45;101693.00;4752680;29;47244;-81
2022/04/03 09:54:40;;;;;;;;;2.00;1.00;;;;;6.59;47.26;101679.84;4769408;29;45764;-78
2022/04/03 09:57:23;;;;;;;;;3.00;2.00;;;;;6.61;48.07;101689.31;4768459;29;45773;-78
2022/04/03 09:59:51;;;;;;;;;1.75;1.00;;;;;6.63;48.83;101687.50;4770419;29;46593;-80
2022/04/03 10:02:17;;;;;;;;;1.00;1.00;;;;;6.66;49.93;101684.78;4770530;29;46568;-80
2022/04/03 10:04:44;;;;;;;;;0.00;0.00;;;;;6.74;49.39;101676.69;4754128;29;45687;-77
2022/04/03 10:07:14;;;;;;;;;1.00;1.00;;;;;6.77;50.18;101676.56;4770567;29;45563;-79
2022/04/03 10:09:48;;;;;;;;;1.00;0.00;;;;;6.81;48.72;101683.34;4770339;29;45506;-76
2022/04/03 10:12:21;;;;;;;;;1.00;1.00;;;;;6.86;49.82;101690.97;4769972;29;47285;-76
2022/04/03 10:14:50;;;;;;;;;1.00;1.00;;;;;6.88;46.44;101690.03;4753815;29;45891;-76
2022/04/03 10:17:17;;;;;;;;;2.00;1.00;;;;;6.92;47.79;101675.97;4770334;29;45729;-77
2022/04/03 10:19:43;;;;;;;;;1.50;1.25;;;;;6.94;49.75;101679.38;4770070;29;46421;-78
2022/04/03 10:22:15;;;;;;;;;1.75;1.00;;;;;6.99;47.23;101684.41;4770141;29;46150;-79
2022/04/03 10:24:44;;;;;;;;;1.00;1.00;;;;;7.00;48.63;101680.91;4769913;29;45509;-77
2022/04/03 10:27:19;;;;;;;;;1.00;1.00;;;;;7.02;45.43;101697.28;4753782;29;45652;-80
2022/04/03 10:29:48;;;;;;;;;1.00;1.00;;;;;7.03;48.28;101673.78;4769717;29;45755;-79
2022/04/03 10:32:33;;;;;;;;;1.00;1.00;;;;;7.05;46.63;101672.00;4769464;29;46427;-78
2022/04/03 10:35:03;;;;;;;;;2.00;1.00;;;;;7.09;47.88;101670.94;4753613;29;45966;-81
2022/04/03 10:37:40;;;;;;;;;1.50;1.00;;;;;7.18;49.43;101665.38;4770075;29;45571;-78
2022/04/03 10:40:15;;;;;;;;;1.00;0.50;;;;;7.26;48.42;101678.09;4769972;29;46555;-77
2022/04/03 10:43:07;;;;;;;;;1.00;1.00;;;;;7.38;48.49;101671.56;4770107;29;45585;-78
2022/04/03 10:45:33;;;;;;;;;3.00;2.50;;;;;7.46;48.18;101670.31;4766206;29;45583;-75
2022/04/03 10:48:20;;;;;;;;;3.00;2.00;;;;;7.52;47.14;101671.81;4769630;29;45918;-77
2022/04/03 10:50:56;;;;;;;;;1.00;1.00;;;;;7.53;47.61;101674.38;4753362;29;46906;-78
2022/04/03 10:53:27;;;;;;;;;1.25;1.00;;;;;7.57;46.95;101673.31;4769549;29;47249;-79
2022/04/03 10:55:55;;;;;;;;;3.25;1.75;;;;;7.57;46.96;101660.28;4769402;29;45843;-80
2022/04/03 10:58:22;;;;;;;;;2.00;2.00;;;;;7.64;48.31;101675.69;4769405;29;45697;-77
2022/04/03 11:00:49;;;;;;;;;1.00;1.00;;;;;7.68;48.14;101664.22;4769300;29;47452;-77
2022/04/03 11:03:14;;;;;;;;;2.00;2.00;;;;;7.72;47.61;101658.78;4769286;29;45652;-77
2022/04/03 11:05:46;;;;;;;;;3.00;2.25;;;;;7.74;47.24;101656.97;4768750;29;45606;-78
2022/04/03 11:08:11;;;;;;;;;1.75;1.75;;;;;7.76;48.05;101647.34;4769486;29;45641;-77
2022/04/03 11:10:48;;;;;;;;;2.00;2.00;;;;;7.79;47.71;101641.97;4767919;29;47686;-78
2022/04/03 11:13:39;;;;;;;;;2.00;2.00;;;;;7.83;47.31;101637.47;4769339;29;47057;-79
2022/04/03 11:16:09;;;;;;;;;4.50;2.75;;;;;7.83;46.78;101632.25;4768987;29;45589;-78
2022/04/03 11:18:45;;;;;;;;;2.50;2.50;;;;;7.87;45.55;101634.69;4769190;29;45850;-78
2022/04/03 11:21:33;;;;;;;;;3.00;2.25;;;;;7.88;45.94;101646.78;4769276;29;45617;-78
2022/04/03 11:24:10;;;;;;;;;2.00;2.00;;;;;7.87;45.84;101629.47;4768999;29;47155;-76
2022/04/03 11:26:37;;;;;;;;;5.00;3.25;;;;;7.87;45.99;101629.47;4768986;29;45646;-80
2022/04/03 11:29:04;;;;;;;;;1.25;1.25;;;;;7.85;45.09;101636.50;4769002;29;45657;-78
2022/04/03 11:31:31;;;;;;;;;2.00;2.00;;;;;7.87;46.84;101620.78;4768558;29;46662;-78
2022/04/03 11:33:58;;;;;;;;;2.75;2.75;;;;;7.89;45.90;101640.66;4768817;29;47127;-79
2022/04/03 11:36:28;;;;;;;;;5.00;2.00;;;;;7.91;47.29;101625.81;4768557;29;45805;-79
2022/04/03 11:38:55;;;;;;;;;2.50;2.50;;;;;7.94;46.24;101623.03;4769167;29;45774;-76
2022/04/03 11:41:27;;;;;;;;;1.50;1.50;;;;;7.98;47.29;101610.72;4768715;29;46667;-77
2022/04/03 11:44:00;;;;;;;;;1.75;1.75;;;;;8.06;47.13;101613.84;4768456;29;46684;-77
2022/04/03 11:46:27;;;;;;;;;3.50;3.50;;;;;8.14;47.44;101603.06;4768964;29;45682;-76
2022/04/03 11:48:53;;;;;;;;;3.00;2.00;;;;;8.21;47.54;101605.31;4752347;29;45707;-77
2022/04/03 11:51:22;;;;;;;;;3.50;2.25;;;;;8.27;46.68;101602.41;4752718;29;47281;-78
2022/04/03 11:53:59;;;;;;;;;3.00;3.00;;;;;8.30;45.15;101602.34;4768655;29;45662;-80
2022/04/03 11:56:26;;;;;;;;;3.00;2.50;;;;;8.31;44.69;101608.41;4768795;29;45759;-78
2022/04/03 11:58:56;;;;;;;;;3.00;2.25;;;;;8.32;44.62;101594.41;4768616;29;45758;-78
2022/04/03 12:01:25;;;;;;;;;5.00;5.00;;;;;8.35;44.93;101599.50;4768418;29;45687;-78
2022/04/03 12:04:01;;;;;;;;;3.00;2.50;;;;;8.42;45.41;101593.09;4752168;29;48132;-79
2022/04/03 12:06:29;;;;;;;;;3.00;2.25;;;;;8.46;45.00;101599.88;4768590;29;45681;-79
2022/04/03 12:08:54;;;;;;;;;2.00;2.00;;;;;8.51;45.82;101589.19;4769610;29;45511;-76
2022/04/03 12:11:29;;;;;;;;;2.75;2.50;;;;;8.56;45.82;101582.00;4769645;29;45630;-77
2022/04/03 12:13:56;;;;;;;;;4.00;4.00;;;;;8.60;45.81;101584.38;4769283;29;46105;-77
2022/04/03 12:16:24;;;;;;;;;3.50;3.00;;;;;8.63;45.64;101592.09;4769260;29;45724;-79
2022/04/03 12:18:59;;;;;;;;;3.00;3.00;;;;;8.65;46.53;101579.78;4752964;29;45904;-82
2022/04/03 12:21:44;;;;;;;;;2.25;2.25;;;;;8.65;45.71;101589.38;4752515;29;47507;-80
2022/04/03 12:24:14;;;;;;;;;2.50;2.50;;;;;8.65;46.46;101594.59;4769074;29;46323;-77
2022/04/03 12:26:51;;;;;;;;;3.00;3.00;;;;;8.66;45.09;101585.84;4768849;29;45542;-77
2022/04/03 12:29:17;;;;;;;;;2.50;2.50;;;;;8.68;45.77;101584.88;4769426;29;45722;-77
2022/04/03 12:31:44;;;;;;;;;4.00;3.00;;;;;8.66;44.65;101578.88;4768922;29;46700;-77
2022/04/03 12:34:15;;;;;;;;;3.50;3.00;;;;;8.67;42.46;101588.41;4769130;29;46509;-78
2022/04/03 12:36:49;;;;;;;;;3.00;3.00;;;;;8.70;44.66;101577.78;4769449;29;45484;-76
2022/04/03 12:39:31;;;;;;;;;3.00;3.00;;;;;8.78;45.30;101582.66;4769582;29;45595;-78
2022/04/03 12:42:08;;;;;;;;;2.25;2.00;;;;;8.88;45.55;101576.06;4769350;29;45658;-78
2022/04/03 12:44:44;;;;;;;;;6.00;5.00;;;;;8.99;45.08;101575.56;4769174;29;46065;-77